Time;durP1;ratioP1;P1;durP2;ratioP2;P2;SDS_P1;SDS_P2;PMS_P1;PMS_P2;Temp;Humidity;BMP_temperature;BMP_pressure;BME280_temperature;BME280_humidity;BME280_pressure;Samples;Min_cycle;Max_cycle;Signal;HPM_P1;HPM_P2
2022/01/27 00:02:21;;;;;;;7.07;4.07;;;;;;;;;;4985091;28;20208;-60
2022/01/27 00:05:02;;;;;;;11.53;3.40;;;;;;;;;;4983519;28;20240;-60
2022/01/27 00:07:29;;;;;;;5.60;3.40;;;;;;;;;;4980530;28;20214;-60
2022/01/27 00:10:11;;;;;;;6.50;3.07;;;;;;;;;;4982346;28;20212;-60
2022/01/27 00:12:40;;;;;;;11.57;6.10;;;;;;;;;;4976873;28;20511;-60
2022/01/27 00:15:10;;;;;;;7.30;4.30;;;;;;;;;;4983913;28;20257;-60
2022/01/27 00:17:41;;;;;;;3.97;3.17;;;;;;;;;;4980532;28;20208;-60
2022/01/27 00:20:09;;;;;;;7.33;4.13;;;;;;;;;;4981985;28;20225;-60
2022/01/27 00:22:36;;;;;;;9.20;3.30;;;;;;;;;;4980883;28;20206;-60
2022/01/27 00:25:05;;;;;;;7.67;3.33;;;;;;;;;;4988019;28;20821;-60
2022/01/27 00:27:33;;;;;;;5.40;3.77;;;;;;;;;;4986170;28;20212;-60
2022/01/27 00:30:03;;;;;;;6.43;4.10;;;;;;;;;;4980616;28;20300;-60
2022/01/27 00:32:30;;;;;;;9.97;4.27;;;;;;;;;;4983019;28;20259;-60
2022/01/27 00:34:57;;;;;;;6.40;3.93;;;;;;;;;;4983155;28;20242;-59
2022/01/27 00:37:24;;;;;;;5.77;3.90;;;;;;;;;;4978318;28;20209;-60
2022/01/27 00:39:51;;;;;;;7.47;4.30;;;;;;;;;;4981170;28;20668;-60
2022/01/27 00:42:20;;;;;;;8.43;3.70;;;;;;;;;;4979635;28;20207;-60
2022/01/27 00:44:47;;;;;;;8.97;4.10;;;;;;;;;;4978742;28;20356;-59
2022/01/27 00:47:14;;;;;;;6.33;3.20;;;;;;;;;;4982749;28;20199;-60
2022/01/27 00:49:41;;;;;;;8.13;3.97;;;;;;;;;;4979052;28;20206;-60
2022/01/27 00:52:14;;;;;;;9.70;3.70;;;;;;;;;;4980753;28;20230;-59
2022/01/27 00:54:41;;;;;;;5.13;3.30;;;;;;;;;;4981235;28;20237;-60
2022/01/27 00:57:15;;;;;;;6.77;3.10;;;;;;;;;;4980585;28;20223;-59
2022/01/27 00:59:52;;;;;;;4.57;3.47;;;;;;;;;;4977911;28;20292;-59
2022/01/27 01:02:30;;;;;;;6.90;3.20;;;;;;;;;;4985719;28;20278;-61
2022/01/27 01:05:11;;;;;;;4.07;2.70;;;;;;;;;;4985592;28;20216;-61
2022/01/27 01:07:43;;;;;;;3.20;2.50;;;;;;;;;;4986507;28;20307;-61
2022/01/27 01:13:47;;;;;;;8.77;3.60;;;;;;;;;;4986761;28;20289;-61
2022/01/27 01:16:00;;;;;;;7.47;3.50;;;;;;;;;;4986864;28;20213;-61
2022/01/27 01:18:40;;;;;;;6.27;3.37;;;;;;;;;;4987762;28;20217;-62
2022/01/27 01:21:29;;;;;;;7.30;3.13;;;;;;;;;;4987699;28;20212;-61
2022/01/27 01:29:39;;;;;;;6.90;3.80;;;;;;;;;;4988653;28;20573;-61
2022/01/27 01:32:17;;;;;;;9.03;3.57;;;;;;;;;;4988218;28;20230;-58
2022/01/27 01:34:47;;;;;;;4.20;3.17;;;;;;;;;;4985572;28;20671;-60
2022/01/27 01:37:18;;;;;;;5.90;3.80;;;;;;;;;;4988660;28;20241;-59
2022/01/27 01:39:45;;;;;;;12.93;5.17;;;;;;;;;;4988319;28;20260;-59
2022/01/27 01:42:12;;;;;;;9.83;3.97;;;;;;;;;;4988407;28;20244;-59
2022/01/27 01:44:39;;;;;;;10.03;3.97;;;;;;;;;;4988748;28;20748;-60
2022/01/27 01:47:06;;;;;;;8.97;4.50;;;;;;;;;;4988338;28;20266;-60
2022/01/27 01:49:35;;;;;;;8.80;3.80;;;;;;;;;;4988333;28;20570;-59
2022/01/27 01:52:05;;;;;;;9.90;4.90;;;;;;;;;;4989092;28;20313;-60
2022/01/27 01:54:32;;;;;;;7.20;3.37;;;;;;;;;;4991680;28;20220;-59
2022/01/27 01:57:00;;;;;;;10.77;4.17;;;;;;;;;;4991830;28;20240;-60
2022/01/27 01:59:27;;;;;;;7.50;3.90;;;;;;;;;;4991772;28;20299;-59
2022/01/27 02:01:54;;;;;;;12.03;4.87;;;;;;;;;;4990783;28;20219;-59
2022/01/27 02:04:21;;;;;;;8.27;4.17;;;;;;;;;;4991162;28;20856;-60
2022/01/27 02:06:53;;;;;;;10.10;3.63;;;;;;;;;;4991153;28;20209;-59
2022/01/27 02:09:29;;;;;;;9.10;3.90;;;;;;;;;;4991544;28;20210;-60
2022/01/27 02:20:12;;;;;;;11.60;4.50;;;;;;;;;;4990925;28;20255;-59
2022/01/27 02:22:40;;;;;;;10.67;4.33;;;;;;;;;;4990647;28;20224;-58
2022/01/27 02:25:07;;;;;;;7.40;4.33;;;;;;;;;;4991080;28;20221;-59
2022/01/27 02:27:35;;;;;;;9.80;4.27;;;;;;;;;;4991168;28;20681;-60
2022/01/27 02:30:02;;;;;;;12.17;4.83;;;;;;;;;;4990939;28;20205;-58
2022/01/27 02:32:29;;;;;;;8.57;4.80;;;;;;;;;;4990283;28;20236;-59
2022/01/27 02:34:56;;;;;;;14.57;4.70;;;;;;;;;;4991253;28;20481;-60
2022/01/27 02:37:24;;;;;;;10.20;4.33;;;;;;;;;;4990522;28;20228;-60
2022/01/27 02:39:51;;;;;;;9.43;3.67;;;;;;;;;;4991061;28;20270;-60
2022/01/27 02:42:22;;;;;;;9.07;4.63;;;;;;;;;;4990665;28;20833;-60
2022/01/27 02:45:05;;;;;;;9.00;4.57;;;;;;;;;;4991376;28;20220;-60
2022/01/27 02:47:32;;;;;;;13.33;4.10;;;;;;;;;;4990914;28;20215;-61
2022/01/27 02:49:59;;;;;;;4.43;3.50;;;;;;;;;;4990839;28;20643;-60
2022/01/27 02:52:28;;;;;;;11.97;4.87;;;;;;;;;;4990918;28;20240;-61
2022/01/27 02:54:55;;;;;;;9.67;4.23;;;;;;;;;;4990498;28;20220;-61
2022/01/27 02:57:22;;;;;;;9.63;4.77;;;;;;;;;;4991102;28;20266;-60
2022/01/27 02:59:49;;;;;;;12.77;4.60;;;;;;;;;;4990582;28;20213;-60
2022/01/27 03:02:16;;;;;;;7.97;4.40;;;;;;;;;;4990863;28;20221;-60
2022/01/27 03:04:43;;;;;;;6.10;3.47;;;;;;;;;;4989944;28;20213;-60
2022/01/27 03:07:10;;;;;;;6.53;4.57;;;;;;;;;;4990970;28;20212;-60
2022/01/27 03:09:39;;;;;;;8.07;3.57;;;;;;;;;;4989971;28;20584;-60
2022/01/27 03:12:07;;;;;;;10.67;4.53;;;;;;;;;;4989926;28;20263;-61
2022/01/27 03:14:35;;;;;;;9.53;4.13;;;;;;;;;;4990194;28;20201;-60
2022/01/27 03:17:03;;;;;;;10.60;4.33;;;;;;;;;;4990697;28;20328;-61
2022/01/27 03:19:30;;;;;;;7.73;3.67;;;;;;;;;;4990440;28;20235;-60
2022/01/27 03:21:57;;;;;;;7.80;3.77;;;;;;;;;;4990217;28;20258;-60
2022/01/27 03:24:25;;;;;;;14.70;4.87;;;;;;;;;;4989674;28;20246;-60
2022/01/27 03:26:54;;;;;;;12.10;3.67;;;;;;;;;;4990348;28;20207;-60
2022/01/27 03:29:21;;;;;;;11.70;3.87;;;;;;;;;;4989969;28;20223;-60
2022/01/27 03:31:49;;;;;;;10.00;4.33;;;;;;;;;;4990227;28;20314;-60
2022/01/27 03:34:16;;;;;;;9.00;4.43;;;;;;;;;;4990053;28;20248;-60
2022/01/27 03:36:43;;;;;;;10.20;4.77;;;;;;;;;;4990311;28;20209;-61
2022/01/27 03:39:10;;;;;;;7.57;3.60;;;;;;;;;;4990039;28;20338;-60
2022/01/27 03:41:39;;;;;;;7.50;4.43;;;;;;;;;;4989730;28;20209;-61
2022/01/27 03:44:08;;;;;;;9.93;4.10;;;;;;;;;;4990222;28;20263;-60
2022/01/27 03:46:35;;;;;;;9.97;3.97;;;;;;;;;;4985156;28;20209;-60
2022/01/27 03:49:02;;;;;;;10.40;4.70;;;;;;;;;;4989667;28;20205;-59
2022/01/27 03:51:29;;;;;;;6.43;3.93;;;;;;;;;;4989597;28;20231;-59
2022/01/27 03:53:56;;;;;;;4.63;3.30;;;;;;;;;;4989853;28;20310;-60
2022/01/27 03:56:23;;;;;;;7.87;3.93;;;;;;;;;;4989450;28;20216;-60
2022/01/27 03:58:50;;;;;;;7.00;4.43;;;;;;;;;;4989743;28;20205;-60
2022/01/27 04:01:19;;;;;;;9.47;3.83;;;;;;;;;;4989489;28;20251;-60
2022/01/27 04:03:46;;;;;;;5.93;3.70;;;;;;;;;;4989711;28;20207;-60
2022/01/27 04:06:19;;;;;;;6.23;3.70;;;;;;;;;;4989653;28;20580;-60
2022/01/27 04:08:48;;;;;;;8.77;3.87;;;;;;;;;;4989207;28;20326;-60
2022/01/27 04:11:15;;;;;;;7.67;4.20;;;;;;;;;;4988811;28;20303;-60
2022/01/27 04:13:42;;;;;;;6.00;3.23;;;;;;;;;;4989764;28;20593;-60
2022/01/27 04:16:09;;;;;;;8.20;3.47;;;;;;;;;;4988494;28;20213;-60
2022/01/27 04:18:37;;;;;;;9.50;4.23;;;;;;;;;;4989319;28;20259;-60
2022/01/27 04:21:04;;;;;;;8.50;3.57;;;;;;;;;;4989001;28;20644;-61
2022/01/27 04:23:31;;;;;;;12.63;4.67;;;;;;;;;;4989098;28;20216;-60
2022/01/27 04:25:58;;;;;;;8.87;4.00;;;;;;;;;;4988964;28;20702;-60
2022/01/27 04:28:29;;;;;;;11.37;4.07;;;;;;;;;;4989197;28;20307;-60
2022/01/27 04:30:58;;;;;;;10.97;3.60;;;;;;;;;;4988868;28;20238;-60
2022/01/27 04:33:26;;;;;;;5.97;3.90;;;;;;;;;;4988545;28;20275;-60
2022/01/27 04:35:58;;;;;;;3.27;2.70;;;;;;;;;;4989066;28;20243;-60
2022/01/27 04:38:30;;;;;;;7.87;3.87;;;;;;;;;;4989266;28;20219;-60
2022/01/27 04:41:06;;;;;;;5.60;3.20;;;;;;;;;;4988883;28;20240;-60
2022/01/27 04:43:39;;;;;;;5.57;3.80;;;;;;;;;;4988732;28;20227;-60
2022/01/27 04:46:18;;;;;;;7.27;3.60;;;;;;;;;;4988785;28;20215;-60
2022/01/27 04:48:49;;;;;;;4.77;3.20;;;;;;;;;;4989238;28;20240;-60
2022/01/27 04:51:20;;;;;;;5.87;3.50;;;;;;;;;;4988656;28;20228;-60
2022/01/27 04:53:53;;;;;;;9.17;4.30;;;;;;;;;;4988792;28;20259;-59
2022/01/27 04:56:21;;;;;;;8.83;3.70;;;;;;;;;;4988332;28;20710;-60
2022/01/27 04:58:52;;;;;;;7.10;4.40;;;;;;;;;;4989159;28;20664;-60
2022/01/27 05:01:26;;;;;;;8.20;4.00;;;;;;;;;;4987902;28;20211;-60
2022/01/27 05:03:59;;;;;;;4.03;3.63;;;;;;;;;;4988616;28;20199;-60
2022/01/27 05:06:27;;;;;;;7.47;4.03;;;;;;;;;;4988763;28;20295;-60
2022/01/27 05:08:55;;;;;;;6.40;3.80;;;;;;;;;;4988625;28;20213;-60
2022/01/27 05:11:26;;;;;;;6.80;2.70;;;;;;;;;;4988049;28;20304;-60
2022/01/27 05:13:57;;;;;;;10.43;4.20;;;;;;;;;;4977991;28;20262;-60
2022/01/27 05:16:24;;;;;;;9.40;3.67;;;;;;;;;;4987673;28;20671;-60
2022/01/27 05:18:51;;;;;;;6.43;2.83;;;;;;;;;;4989032;28;20209;-60
2022/01/27 05:21:18;;;;;;;5.20;2.77;;;;;;;;;;4988318;28;20251;-60
2022/01/27 05:23:46;;;;;;;9.97;3.50;;;;;;;;;;4987849;28;20224;-60
2022/01/27 05:26:14;;;;;;;3.00;2.47;;;;;;;;;;4988213;28;20232;-60
2022/01/27 05:28:41;;;;;;;5.73;2.40;;;;;;;;;;4991875;28;20217;-60
2022/01/27 05:31:08;;;;;;;5.73;3.57;;;;;;;;;;4992741;28;20263;-59
2022/01/27 05:33:35;;;;;;;3.33;3.03;;;;;;;;;;4992521;28;20229;-59
2022/01/27 05:36:02;;;;;;;6.17;2.93;;;;;;;;;;4992142;28;20244;-60
2022/01/27 05:38:29;;;;;;;6.77;3.10;;;;;;;;;;4992479;28;20669;-59
2022/01/27 05:40:58;;;;;;;2.97;2.17;;;;;;;;;;4992388;28;20680;-60
2022/01/27 05:43:25;;;;;;;5.70;2.77;;;;;;;;;;4991789;28;20236;-60
2022/01/27 05:45:52;;;;;;;5.83;2.77;;;;;;;;;;4991855;28;20205;-59
2022/01/27 05:48:19;;;;;;;7.20;2.87;;;;;;;;;;4992370;28;20958;-60
2022/01/27 05:50:46;;;;;;;5.23;2.47;;;;;;;;;;4986361;28;20234;-60
2022/01/27 05:53:13;;;;;;;7.07;2.57;;;;;;;;;;4983163;28;20660;-60
2022/01/27 05:55:40;;;;;;;4.67;2.70;;;;;;;;;;4991720;28;20215;-60
2022/01/27 05:58:08;;;;;;;5.80;2.47;;;;;;;;;;4992148;28;20275;-60
2022/01/27 06:00:35;;;;;;;5.13;2.60;;;;;;;;;;4991551;28;20676;-59
2022/01/27 06:03:03;;;;;;;6.80;3.20;;;;;;;;;;4991244;28;20208;-59
2022/01/27 06:05:30;;;;;;;5.43;2.97;;;;;;;;;;4990867;28;20683;-60
2022/01/27 06:07:57;;;;;;;3.47;3.07;;;;;;;;;;4988449;28;20643;-60
2022/01/27 06:10:24;;;;;;;5.27;3.20;;;;;;;;;;4988479;28;20216;-60
2022/01/27 06:12:52;;;;;;;7.10;2.83;;;;;;;;;;4991325;28;20213;-60
2022/01/27 06:15:21;;;;;;;4.20;2.90;;;;;;;;;;4991129;28;20315;-60
2022/01/27 06:17:48;;;;;;;4.70;3.40;;;;;;;;;;4990764;28;20201;-59
2022/01/27 06:20:15;;;;;;;4.50;3.47;;;;;;;;;;4991369;28;20216;-59
2022/01/27 06:22:42;;;;;;;6.23;3.07;;;;;;;;;;4991066;28;20213;-59
2022/01/27 06:25:10;;;;;;;5.27;2.40;;;;;;;;;;4990660;28;20226;-60
2022/01/27 06:27:37;;;;;;;5.37;2.50;;;;;;;;;;4989537;28;20224;-60
2022/01/27 06:30:05;;;;;;;3.47;2.50;;;;;;;;;;4990879;28;20217;-60
2022/01/27 06:32:34;;;;;;;3.73;2.60;;;;;;;;;;4990352;28;20205;-60
2022/01/27 06:35:03;;;;;;;5.47;2.67;;;;;;;;;;4989567;28;20298;-60
2022/01/27 06:37:30;;;;;;;4.57;2.50;;;;;;;;;;4991609;28;20299;-60
2022/01/27 06:39:58;;;;;;;6.63;2.53;;;;;;;;;;4990407;28;20213;-60
2022/01/27 06:42:25;;;;;;;6.90;2.80;;;;;;;;;;4989049;28;20203;-60
2022/01/27 06:44:52;;;;;;;4.10;2.40;;;;;;;;;;4991452;28;20221;-60
2022/01/27 06:47:20;;;;;;;4.93;2.83;;;;;;;;;;4991289;28;20224;-60
2022/01/27 06:49:48;;;;;;;8.40;3.33;;;;;;;;;;4990151;28;20683;-60
2022/01/27 06:52:15;;;;;;;7.83;2.97;;;;;;;;;;4990654;28;20902;-60
2022/01/27 06:54:43;;;;;;;5.03;2.27;;;;;;;;;;4987364;28;20330;-60
2022/01/27 06:57:10;;;;;;;3.80;2.37;;;;;;;;;;4990650;28;20303;-60
2022/01/27 06:59:37;;;;;;;5.33;2.23;;;;;;;;;;4990771;28;20304;-59
2022/01/27 07:02:04;;;;;;;4.53;2.20;;;;;;;;;;4990679;28;20223;-61
2022/01/27 07:04:31;;;;;;;5.07;1.97;;;;;;;;;;4990667;28;20765;-59
2022/01/27 07:07:00;;;;;;;10.93;2.57;;;;;;;;;;4990692;28;20230;-60
2022/01/27 07:09:27;;;;;;;7.80;3.30;;;;;;;;;;4990597;28;20754;-59
2022/01/27 07:11:54;;;;;;;2.70;2.10;;;;;;;;;;4990446;28;20235;-59
2022/01/27 07:14:21;;;;;;;2.60;2.37;;;;;;;;;;4990274;28;20715;-59
2022/01/27 07:16:48;;;;;;;3.33;1.97;;;;;;;;;;4990737;28;20254;-59
2022/01/27 07:19:15;;;;;;;6.03;2.40;;;;;;;;;;4990564;28;20676;-59
2022/01/27 07:21:42;;;;;;;3.47;2.57;;;;;;;;;;4990576;28;20224;-60
2022/01/27 07:24:10;;;;;;;6.83;2.33;;;;;;;;;;4990458;28;20628;-60
2022/01/27 07:26:37;;;;;;;8.63;2.67;;;;;;;;;;4989559;28;20260;-60
2022/01/27 07:29:04;;;;;;;5.50;3.00;;;;;;;;;;4990400;28;20213;-60
2022/01/27 07:31:31;;;;;;;5.47;3.10;;;;;;;;;;4990458;28;20279;-60
2022/01/27 07:33:58;;;;;;;6.63;3.07;;;;;;;;;;4990056;28;20635;-60
2022/01/27 07:36:26;;;;;;;3.00;2.63;;;;;;;;;;4990214;28;20960;-60
2022/01/27 07:38:53;;;;;;;9.33;3.27;;;;;;;;;;4990173;28;20582;-60
2022/01/27 07:41:21;;;;;;;6.87;3.80;;;;;;;;;;4979062;28;20216;-61
2022/01/27 07:43:48;;;;;;;5.87;3.17;;;;;;;;;;4970957;28;20324;-60
2022/01/27 07:46:15;;;;;;;5.73;2.70;;;;;;;;;;4990121;28;20213;-60
2022/01/27 07:48:42;;;;;;;6.47;2.80;;;;;;;;;;4989858;28;20598;-60
2022/01/27 07:51:10;;;;;;;6.67;3.10;;;;;;;;;;4988377;28;20302;-60
2022/01/27 07:53:37;;;;;;;3.73;2.80;;;;;;;;;;4984849;28;20225;-60
2022/01/27 07:56:05;;;;;;;4.40;2.20;;;;;;;;;;4977117;28;20201;-61
2022/01/27 07:58:38;;;;;;;8.90;4.50;;;;;;;;;;4988534;28;20675;-60
2022/01/27 08:01:05;;;;;;;3.50;2.70;;;;;;;;;;4970496;28;20217;-60
2022/01/27 08:03:32;;;;;;;8.77;3.47;;;;;;;;;;4970342;28;20212;-60
2022/01/27 08:05:59;;;;;;;8.00;3.57;;;;;;;;;;4970333;28;20294;-60
2022/01/27 08:08:26;;;;;;;7.00;3.23;;;;;;;;;;4970129;28;20246;-61
2022/01/27 08:10:53;;;;;;;3.47;3.17;;;;;;;;;;4969976;28;20217;-60
2022/01/27 08:13:20;;;;;;;10.80;4.00;;;;;;;;;;4969788;28;20217;-60
2022/01/27 08:15:48;;;;;;;9.20;4.10;;;;;;;;;;4970500;28;20283;-60
2022/01/27 08:18:15;;;;;;;7.30;3.63;;;;;;;;;;4989591;28;20213;-59
2022/01/27 08:20:43;;;;;;;5.07;2.43;;;;;;;;;;4989538;28;20311;-60
2022/01/27 08:23:12;;;;;;;5.70;3.17;;;;;;;;;;4989133;28;20220;-60
2022/01/27 08:25:39;;;;;;;6.27;4.10;;;;;;;;;;4989127;28;20275;-60
2022/01/27 08:28:17;;;;;;;4.93;2.97;;;;;;;;;;4988556;28;20556;-60
2022/01/27 08:30:48;;;;;;;12.80;4.77;;;;;;;;;;4989233;28;20207;-60
2022/01/27 08:33:18;;;;;;;8.83;3.03;;;;;;;;;;4989058;28;20224;-60
2022/01/27 08:35:46;;;;;;;7.10;3.97;;;;;;;;;;4989009;28;20347;-60
2022/01/27 08:38:13;;;;;;;8.50;3.70;;;;;;;;;;4989124;28;20213;-60
2022/01/27 08:40:40;;;;;;;4.13;2.30;;;;;;;;;;4988864;28;20219;-60
2022/01/27 08:43:08;;;;;;;7.60;4.47;;;;;;;;;;4988995;28;20213;-60
2022/01/27 08:45:36;;;;;;;1.93;1.83;;;;;;;;;;4989290;28;20258;-60
2022/01/27 08:48:03;;;;;;;8.00;4.43;;;;;;;;;;4988955;28;20216;-60
2022/01/27 08:50:31;;;;;;;5.00;2.93;;;;;;;;;;4980914;28;20246;-60
2022/01/27 08:52:58;;;;;;;9.43;4.10;;;;;;;;;;4970276;28;20221;-59
2022/01/27 08:55:25;;;;;;;5.57;2.37;;;;;;;;;;4988693;28;20657;-61
2022/01/27 08:57:54;;;;;;;5.80;2.50;;;;;;;;;;4988417;28;20214;-60
2022/01/27 09:00:21;;;;;;;6.73;3.13;;;;;;;;;;4970537;28;20219;-60
2022/01/27 09:02:48;;;;;;;8.40;3.40;;;;;;;;;;4968948;28;20217;-59
2022/01/27 09:05:15;;;;;;;6.10;3.23;;;;;;;;;;4969319;28;20260;-62
2022/01/27 09:07:43;;;;;;;12.43;4.20;;;;;;;;;;4985864;28;20217;-60
2022/01/27 09:10:11;;;;;;;4.77;2.03;;;;;;;;;;4988703;28;20213;-60
2022/01/27 09:12:38;;;;;;;6.87;3.50;;;;;;;;;;4988687;28;20753;-59
2022/01/27 09:15:05;;;;;;;10.30;3.30;;;;;;;;;;4984200;28;20236;-60
2022/01/27 09:17:39;;;;;;;7.13;3.97;;;;;;;;;;4987669;28;20218;-60
2022/01/27 09:20:06;;;;;;;6.50;3.37;;;;;;;;;;4988703;28;20285;-60
2022/01/27 09:22:35;;;;;;;6.93;3.97;;;;;;;;;;4988743;28;20239;-59
2022/01/27 09:25:10;;;;;;;5.23;3.23;;;;;;;;;;4988800;28;20216;-60
2022/01/27 09:27:37;;;;;;;6.60;3.10;;;;;;;;;;4988712;28;20223;-59
2022/01/27 09:30:04;;;;;;;3.93;2.40;;;;;;;;;;4988858;28;20212;-59
2022/01/27 09:32:31;;;;;;;6.43;3.03;;;;;;;;;;4988693;28;20240;-59
2022/01/27 09:34:58;;;;;;;8.90;3.23;;;;;;;;;;4979766;28;20241;-60
2022/01/27 09:37:25;;;;;;;5.00;3.30;;;;;;;;;;4968942;28;20213;-59
2022/01/27 09:39:53;;;;;;;7.90;3.07;;;;;;;;;;4969004;28;20213;-60
2022/01/27 09:42:23;;;;;;;4.17;2.10;;;;;;;;;;4968962;28;20209;-60
2022/01/27 09:44:53;;;;;;;4.20;2.47;;;;;;;;;;4968976;28;20211;-61
2022/01/27 09:47:24;;;;;;;4.83;2.77;;;;;;;;;;4979520;28;20216;-60
2022/01/27 09:49:54;;;;;;;9.67;3.00;;;;;;;;;;4988247;28;20680;-59
2022/01/27 09:52:21;;;;;;;5.83;2.37;;;;;;;;;;4985340;28;20228;-60
2022/01/27 09:54:49;;;;;;;11.70;3.30;;;;;;;;;;4984283;28;20240;-59
2022/01/27 09:57:16;;;;;;;6.93;3.40;;;;;;;;;;4987975;28;20213;-60
2022/01/27 09:59:45;;;;;;;10.83;3.37;;;;;;;;;;4988299;28;20612;-60
2022/01/27 10:02:16;;;;;;;4.30;2.50;;;;;;;;;;4976793;28;20770;-60
2022/01/27 10:04:45;;;;;;;6.83;3.43;;;;;;;;;;4976145;28;20216;-60
2022/01/27 10:07:14;;;;;;;5.43;3.20;;;;;;;;;;4981018;28;20271;-60
2022/01/27 10:09:41;;;;;;;5.67;3.30;;;;;;;;;;4979216;28;20216;-60
2022/01/27 10:12:08;;;;;;;10.77;3.40;;;;;;;;;;4974541;28;20221;-60
2022/01/27 10:14:37;;;;;;;2.97;1.77;;;;;;;;;;4989023;28;21041;-60
2022/01/27 10:17:09;;;;;;;3.00;1.73;;;;;;;;;;4990913;28;20606;-60
2022/01/27 10:19:36;;;;;;;11.83;4.33;;;;;;;;;;4990816;28;20660;-60
2022/01/27 10:22:05;;;;;;;7.47;3.20;;;;;;;;;;4988624;28;20295;-60
2022/01/27 10:24:33;;;;;;;10.23;3.67;;;;;;;;;;4979734;28;20233;-60
2022/01/27 10:27:18;;;;;;;4.70;2.27;;;;;;;;;;4980258;28;20224;-60
2022/01/27 10:30:02;;;;;;;3.40;1.90;;;;;;;;;;4979738;28;20205;-60
2022/01/27 10:32:39;;;;;;;6.87;1.47;;;;;;;;;;4973412;28;20235;-60
2022/01/27 10:35:06;;;;;;;2.47;0.87;;;;;;;;;;4981820;28;20252;-61
2022/01/27 10:37:49;;;;;;;4.20;3.30;;;;;;;;;;4981620;28;20287;-60
2022/01/27 10:40:21;;;;;;;3.03;1.83;;;;;;;;;;4982194;28;20854;-60
2022/01/27 10:42:58;;;;;;;5.40;2.50;;;;;;;;;;4983372;28;20699;-60
2022/01/27 10:45:26;;;;;;;6.03;3.33;;;;;;;;;;4988940;28;20220;-61
2022/01/27 10:48:06;;;;;;;5.27;2.57;;;;;;;;;;4979812;28;20668;-61
2022/01/27 10:50:47;;;;;;;4.83;2.03;;;;;;;;;;4979704;28;20663;-61
2022/01/27 10:53:19;;;;;;;5.07;2.47;;;;;;;;;;4978451;28;20216;-62
2022/01/27 10:55:47;;;;;;;2.30;2.10;;;;;;;;;;4977677;28;20329;-62
2022/01/27 10:58:26;;;;;;;7.73;2.80;;;;;;;;;;4980384;28;20224;-61
2022/01/27 11:01:00;;;;;;;6.37;3.17;;;;;;;;;;4977362;28;20318;-63
2022/01/27 11:03:38;;;;;;;5.83;2.60;;;;;;;;;;4987253;28;20750;-60
2022/01/27 11:06:09;;;;;;;9.37;3.57;;;;;;;;;;4981963;28;20263;-61
2022/01/27 11:08:40;;;;;;;2.53;1.90;;;;;;;;;;4977411;28;20560;-66
2022/01/27 11:11:11;;;;;;;3.50;2.43;;;;;;;;;;4981213;28;20226;-61
2022/01/27 11:16:29;;;;;;;2.83;1.90;;;;;;;;;;4981525;28;20731;-60
2022/01/27 11:19:12;;;;;;;5.83;3.30;;;;;;;;;;4984174;28;20232;-61
2022/01/27 11:21:42;;;;;;;2.53;2.33;;;;;;;;;;4985699;28;20215;-60
2022/01/27 11:24:16;;;;;;;4.47;2.10;;;;;;;;;;4987290;28;20327;-61
2022/01/27 11:26:45;;;;;;;6.47;3.20;;;;;;;;;;4989253;28;20228;-60
2022/01/27 11:29:13;;;;;;;2.63;2.37;;;;;;;;;;4989779;28;20221;-61
2022/01/27 11:31:59;;;;;;;4.60;2.47;;;;;;;;;;4990531;28;20231;-60
2022/01/27 11:34:44;;;;;;;6.33;3.17;;;;;;;;;;4989592;28;20243;-60
2022/01/27 11:37:12;;;;;;;7.87;2.27;;;;;;;;;;4976511;28;20296;-60
2022/01/27 11:39:54;;;;;;;4.67;3.03;;;;;;;;;;4989622;28;20205;-60
2022/01/27 11:42:40;;;;;;;3.50;2.57;;;;;;;;;;4989967;28;20271;-61
2022/01/27 11:45:26;;;;;;;6.93;3.50;;;;;;;;;;4989340;28;20206;-60
2022/01/27 11:47:54;;;;;;;5.53;2.70;;;;;;;;;;4982688;28;20671;-60
2022/01/27 11:50:32;;;;;;;5.97;3.00;;;;;;;;;;4976385;28;20723;-60
2022/01/27 11:52:59;;;;;;;2.70;1.80;;;;;;;;;;4972832;28;20227;-60
2022/01/27 11:55:43;;;;;;;9.07;3.50;;;;;;;;;;4988084;28;20663;-60
2022/01/27 11:58:15;;;;;;;4.37;3.07;;;;;;;;;;4987443;28;20210;-60
2022/01/27 12:00:42;;;;;;;3.23;2.40;;;;;;;;;;4988469;28;20225;-60
2022/01/27 12:03:10;;;;;;;4.47;2.60;;;;;;;;;;4988198;28;20213;-60
2022/01/27 12:05:39;;;;;;;3.33;2.00;;;;;;;;;;4988507;28;20213;-60
2022/01/27 12:08:25;;;;;;;4.63;2.87;;;;;;;;;;4988849;28;20580;-60
2022/01/27 12:10:55;;;;;;;3.30;3.00;;;;;;;;;;4989014;28;20217;-60
2022/01/27 12:13:56;;;;;;;11.07;3.07;;;;;;;;;;4989226;28;20652;-60
2022/01/27 12:16:37;;;;;;;4.43;2.13;;;;;;;;;;4988523;28;20573;-60
2022/01/27 12:19:06;;;;;;;5.83;3.23;;;;;;;;;;4973183;28;20217;-60
2022/01/27 12:21:35;;;;;;;9.97;3.60;;;;;;;;;;4976375;28;20233;-60
2022/01/27 12:24:18;;;;;;;7.33;3.67;;;;;;;;;;4988693;28;20758;-60
2022/01/27 12:26:46;;;;;;;3.27;2.17;;;;;;;;;;4972700;28;21000;-60
2022/01/27 12:29:13;;;;;;;9.43;3.27;;;;;;;;;;4974841;28;20213;-60
2022/01/27 12:31:40;;;;;;;4.90;2.97;;;;;;;;;;4970100;28;20219;-60
2022/01/27 12:34:08;;;;;;;8.87;3.47;;;;;;;;;;4984479;28;20254;-61
2022/01/27 12:36:36;;;;;;;6.57;3.57;;;;;;;;;;4988177;28;20237;-61
2022/01/27 12:39:03;;;;;;;5.37;3.40;;;;;;;;;;4988921;28;20268;-60
2022/01/27 12:41:37;;;;;;;7.83;3.30;;;;;;;;;;4977895;28;20289;-61
2022/01/27 12:44:09;;;;;;;6.10;3.03;;;;;;;;;;4987197;28;20224;-61
2022/01/27 12:46:36;;;;;;;7.37;3.33;;;;;;;;;;4976831;28;20202;-60
2022/01/27 12:49:04;;;;;;;11.93;3.10;;;;;;;;;;4969599;28;20221;-60
2022/01/27 12:51:46;;;;;;;11.07;3.00;;;;;;;;;;4988084;28;20728;-60
2022/01/27 12:54:15;;;;;;;6.07;3.70;;;;;;;;;;4989312;28;20221;-61
2022/01/27 12:56:42;;;;;;;6.73;3.90;;;;;;;;;;4989120;28;20728;-61
2022/01/27 12:59:14;;;;;;;6.13;3.60;;;;;;;;;;4988035;28;20637;-61
2022/01/27 13:01:41;;;;;;;9.57;3.50;;;;;;;;;;4986307;28;20748;-61
2022/01/27 13:04:08;;;;;;;4.13;3.27;;;;;;;;;;4969042;28;20210;-61
2022/01/27 13:06:35;;;;;;;7.13;3.47;;;;;;;;;;4969502;28;20728;-61
2022/01/27 13:09:12;;;;;;;8.93;2.67;;;;;;;;;;4969559;28;20669;-61
2022/01/27 13:11:41;;;;;;;7.57;3.13;;;;;;;;;;4986916;28;20750;-61
2022/01/27 13:14:08;;;;;;;6.67;3.37;;;;;;;;;;4988592;28;20279;-60
2022/01/27 13:16:41;;;;;;;9.63;4.10;;;;;;;;;;4988558;28;20248;-61
2022/01/27 13:19:18;;;;;;;7.17;3.70;;;;;;;;;;4988369;28;20205;-61
2022/01/27 13:21:51;;;;;;;5.80;4.03;;;;;;;;;;4988888;28;20225;-61
2022/01/27 13:24:19;;;;;;;4.40;2.83;;;;;;;;;;4988259;28;20240;-61
2022/01/27 13:26:49;;;;;;;7.17;4.23;;;;;;;;;;4987517;28;20252;-61
2022/01/27 13:29:19;;;;;;;9.97;3.37;;;;;;;;;;4988263;28;20233;-61
2022/01/27 13:31:46;;;;;;;5.63;2.93;;;;;;;;;;4988337;28;20218;-61
2022/01/27 13:34:14;;;;;;;6.03;3.83;;;;;;;;;;4988656;28;21053;-61
2022/01/27 13:36:41;;;;;;;7.27;4.00;;;;;;;;;;4988406;28;20232;-61
2022/01/27 13:39:14;;;;;;;14.00;3.60;;;;;;;;;;4988279;28;20206;-60
2022/01/27 13:41:42;;;;;;;9.87;4.07;;;;;;;;;;4988376;28;20300;-60
2022/01/27 13:44:11;;;;;;;6.00;3.67;;;;;;;;;;4988223;28;20209;-61
2022/01/27 13:46:40;;;;;;;10.27;4.27;;;;;;;;;;4988373;28;20210;-61
2022/01/27 13:49:08;;;;;;;10.07;4.37;;;;;;;;;;4990532;28;20221;-60
2022/01/27 13:51:46;;;;;;;8.30;3.77;;;;;;;;;;4991792;28;20230;-60
2022/01/27 13:54:13;;;;;;;4.47;3.23;;;;;;;;;;4992058;28;20236;-60
2022/01/27 13:56:41;;;;;;;5.60;3.33;;;;;;;;;;4992143;28;20241;-60
2022/01/27 13:59:13;;;;;;;6.97;3.43;;;;;;;;;;4992242;28;20219;-60
2022/01/27 14:01:42;;;;;;;8.13;3.87;;;;;;;;;;4992461;28;20214;-61
2022/01/27 14:04:10;;;;;;;5.53;2.80;;;;;;;;;;4991668;28;20585;-60
2022/01/27 14:06:53;;;;;;;9.23;4.17;;;;;;;;;;4991437;28;20221;-60
2022/01/27 14:09:22;;;;;;;4.60;3.20;;;;;;;;;;4991810;28;20209;-59
2022/01/27 14:11:55;;;;;;;13.93;4.17;;;;;;;;;;4990942;28;20272;-60
2022/01/27 14:14:24;;;;;;;10.00;3.50;;;;;;;;;;4990872;28;20219;-60
2022/01/27 14:16:52;;;;;;;8.40;3.37;;;;;;;;;;4991069;28;20265;-60
2022/01/27 14:19:19;;;;;;;9.37;4.23;;;;;;;;;;4990793;28;20217;-60
2022/01/27 14:21:47;;;;;;;12.48;5.60;;;;;;;;;;4990072;28;20440;-60
2022/01/27 14:24:20;;;;;;;13.50;4.13;;;;;;;;;;4988291;28;20313;-59
2022/01/27 14:26:58;;;;;;;8.50;3.13;;;;;;;;;;4980913;28;20209;-61
2022/01/27 14:29:25;;;;;;;3.00;2.13;;;;;;;;;;4975324;28;20232;-60
2022/01/27 14:31:54;;;;;;;7.87;3.63;;;;;;;;;;4991409;28;20220;-59
2022/01/27 14:34:29;;;;;;;10.60;4.47;;;;;;;;;;4985883;28;20605;-65
2022/01/27 14:36:56;;;;;;;7.33;4.37;;;;;;;;;;4988942;28;20228;-62
2022/01/27 14:39:23;;;;;;;12.20;5.00;;;;;;;;;;4983654;28;20214;-62
2022/01/27 14:41:50;;;;;;;10.17;5.07;;;;;;;;;;4974502;28;20218;-62
2022/01/27 14:44:18;;;;;;;8.47;4.23;;;;;;;;;;4964141;28;20214;-62
2022/01/27 14:46:47;;;;;;;6.93;3.20;;;;;;;;;;4967690;28;20305;-60
2022/01/27 14:49:16;;;;;;;9.63;4.43;;;;;;;;;;4981339;28;20218;-64
2022/01/27 14:51:45;;;;;;;5.60;3.67;;;;;;;;;;4985019;28;20260;-61
2022/01/27 14:54:13;;;;;;;8.33;4.30;;;;;;;;;;4977777;28;20214;-64
2022/01/27 14:56:40;;;;;;;10.27;5.20;;;;;;;;;;4979696;28;20257;-61
2022/01/27 14:59:08;;;;;;;10.10;4.47;;;;;;;;;;4976059;28;20206;-61
2022/01/27 15:01:35;;;;;;;5.33;2.47;;;;;;;;;;4980905;28;20304;-62
2022/01/27 15:04:02;;;;;;;6.53;4.00;;;;;;;;;;4972259;28;20210;-61
2022/01/27 15:06:32;;;;;;;9.17;4.17;;;;;;;;;;4975601;28;20724;-63
2022/01/27 15:08:59;;;;;;;5.87;3.67;;;;;;;;;;4982851;28;20210;-62
2022/01/27 15:11:26;;;;;;;8.73;4.13;;;;;;;;;;4982719;28;20956;-61
2022/01/27 15:13:59;;;;;;;14.97;4.90;;;;;;;;;;4981522;28;20215;-61
2022/01/27 15:19:29;;;;;;;13.67;4.47;;;;;;;;;;4969322;28;20205;-62